sensor_id;sensor_type;location;lat;lon;timestamp;temperature;humidity
17715;DHT22;8977;50.902;4.314;2022-09-09T00:02:14;20.70;99.90
17715;DHT22;8977;50.902;4.314;2022-09-09T00:04:52;20.70;99.90
17715;DHT22;8977;50.902;4.314;2022-09-09T00:07:24;20.70;99.90
17715;DHT22;8977;50.902;4.314;2022-09-09T00:09:58;20.70;99.90
17715;DHT22;8977;50.902;4.314;2022-09-09T00:12:34;20.80;99.90
17715;DHT22;8977;50.902;4.314;2022-09-09T00:15:07;20.70;99.90
17715;DHT22;8977;50.902;4.314;2022-09-09T00:17:41;20.70;99.90
17715;DHT22;8977;50.902;4.314;2022-09-09T00:20:13;20.70;99.90
17715;DHT22;8977;50.902;4.314;2022-09-09T00:22:45;20.70;99.90
17715;DHT22;8977;50.902;4.314;2022-09-09T00:25:17;20.80;99.90
17715;DHT22;8977;50.902;4.314;2022-09-09T00:27:48;20.70;99.90
17715;DHT22;8977;50.902;4.314;2022-09-09T00:30:17;20.60;99.90
17715;DHT22;8977;50.902;4.314;2022-09-09T00:32:49;20.70;99.90
17715;DHT22;8977;50.902;4.314;2022-09-09T00:35:22;20.70;99.90
17715;DHT22;8977;50.902;4.314;2022-09-09T00:37:53;20.70;99.90
17715;DHT22;8977;50.902;4.314;2022-09-09T00:40:31;20.70;99.90
17715;DHT22;8977;50.902;4.314;2022-09-09T00:43:18;20.70;99.90
17715;DHT22;8977;50.902;4.314;2022-09-09T00:46:14;20.70;99.90
17715;DHT22;8977;50.902;4.314;2022-09-09T00:48:54;20.70;99.90
17715;DHT22;8977;50.902;4.314;2022-09-09T00:51:32;20.60;99.90
17715;DHT22;8977;50.902;4.314;2022-09-09T00:54:13;20.70;99.90
17715;DHT22;8977;50.902;4.314;2022-09-09T00:56:49;20.70;99.90
17715;DHT22;8977;50.902;4.314;2022-09-09T00:59:27;20.70;99.90
17715;DHT22;8977;50.902;4.314;2022-09-09T01:01:55;20.60;99.90
17715;DHT22;8977;50.902;4.314;2022-09-09T01:04:26;20.60;99.90
17715;DHT22;8977;50.902;4.314;2022-09-09T01:07:04;20.60;99.90
17715;DHT22;8977;50.902;4.314;2022-09-09T01:09:41;20.60;99.90
17715;DHT22;8977;50.902;4.314;2022-09-09T01:12:15;20.60;99.90
17715;DHT22;8977;50.902;4.314;2022-09-09T01:14:47;20.60;99.90
17715;DHT22;8977;50.902;4.314;2022-09-09T01:17:17;20.60;99.90
17715;DHT22;8977;50.902;4.314;2022-09-09T01:19:55;20.60;99.90
17715;DHT22;8977;50.902;4.314;2022-09-09T01:22:33;20.60;99.90
17715;DHT22;8977;50.902;4.314;2022-09-09T01:25:29;20.60;99.90
17715;DHT22;8977;50.902;4.314;2022-09-09T01:28:00;20.70;99.90
17715;DHT22;8977;50.902;4.314;2022-09-09T01:30:28;20.60;99.90
17715;DHT22;8977;50.902;4.314;2022-09-09T01:32:57;20.60;99.90
17715;DHT22;8977;50.902;4.314;2022-09-09T01:35:39;20.60;99.90
17715;DHT22;8977;50.902;4.314;2022-09-09T01:38:07;20.60;99.90
17715;DHT22;8977;50.902;4.314;2022-09-09T01:40:34;20.60;99.90
17715;DHT22;8977;50.902;4.314;2022-09-09T01:43:03;20.60;99.90
17715;DHT22;8977;50.902;4.314;2022-09-09T01:45:32;20.60;99.90
17715;DHT22;8977;50.902;4.314;2022-09-09T01:47:59;20.60;99.90
17715;DHT22;8977;50.902;4.314;2022-09-09T01:50:27;20.60;99.90
17715;DHT22;8977;50.902;4.314;2022-09-09T01:52:57;20.60;99.90
17715;DHT22;8977;50.902;4.314;2022-09-09T01:55:29;20.60;99.90
17715;DHT22;8977;50.902;4.314;2022-09-09T01:58:06;20.60;99.90
17715;DHT22;8977;50.902;4.314;2022-09-09T02:00:38;20.60;99.90
17715;DHT22;8977;50.902;4.314;2022-09-09T02:03:17;20.60;99.90
17715;DHT22;8977;50.902;4.314;2022-09-09T02:05:51;20.60;99.90
17715;DHT22;8977;50.902;4.314;2022-09-09T02:08:24;20.60;99.90
17715;DHT22;8977;50.902;4.314;2022-09-09T02:10:56;20.60;99.90
17715;DHT22;8977;50.902;4.314;2022-09-09T02:13:26;20.60;99.90
17715;DHT22;8977;50.902;4.314;2022-09-09T02:15:56;20.50;99.90
17715;DHT22;8977;50.902;4.314;2022-09-09T02:18:29;20.50;99.90
17715;DHT22;8977;50.902;4.314;2022-09-09T02:20:58;20.50;99.90
17715;DHT22;8977;50.902;4.314;2022-09-09T02:23:26;20.60;99.90
17715;DHT22;8977;50.902;4.314;2022-09-09T02:25:56;20.60;99.90
17715;DHT22;8977;50.902;4.314;2022-09-09T02:28:26;20.60;99.90
17715;DHT22;8977;50.902;4.314;2022-09-09T02:30:55;20.60;99.90
17715;DHT22;8977;50.902;4.314;2022-09-09T02:33:27;20.50;99.90
17715;DHT22;8977;50.902;4.314;2022-09-09T02:35:55;20.60;99.90
17715;DHT22;8977;50.902;4.314;2022-09-09T02:38:29;20.60;99.90
17715;DHT22;8977;50.902;4.314;2022-09-09T02:40:57;20.50;99.90
17715;DHT22;8977;50.902;4.314;2022-09-09T02:43:24;20.50;99.90
17715;DHT22;8977;50.902;4.314;2022-09-09T02:46:00;20.40;99.90
17715;DHT22;8977;50.902;4.314;2022-09-09T02:48:33;20.50;99.90
17715;DHT22;8977;50.902;4.314;2022-09-09T02:51:07;20.50;99.90
17715;DHT22;8977;50.902;4.314;2022-09-09T02:53:41;20.50;99.90
17715;DHT22;8977;50.902;4.314;2022-09-09T02:56:14;20.40;99.90
17715;DHT22;8977;50.902;4.314;2022-09-09T02:58:41;20.40;99.90
17715;DHT22;8977;50.902;4.314;2022-09-09T03:01:10;20.40;99.90
17715;DHT22;8977;50.902;4.314;2022-09-09T03:03:37;20.50;99.90
17715;DHT22;8977;50.902;4.314;2022-09-09T03:06:05;20.50;99.90
17715;DHT22;8977;50.902;4.314;2022-09-09T03:08:32;20.40;99.90
17715;DHT22;8977;50.902;4.314;2022-09-09T03:10:59;20.40;99.90
17715;DHT22;8977;50.902;4.314;2022-09-09T03:13:27;20.50;99.90
17715;DHT22;8977;50.902;4.314;2022-09-09T03:15:53;20.40;99.90
17715;DHT22;8977;50.902;4.314;2022-09-09T03:18:22;20.50;99.90
17715;DHT22;8977;50.902;4.314;2022-09-09T03:20:49;20.40;99.90
17715;DHT22;8977;50.902;4.314;2022-09-09T03:23:16;20.40;99.90
17715;DHT22;8977;50.902;4.314;2022-09-09T03:25:46;20.50;99.90
17715;DHT22;8977;50.902;4.314;2022-09-09T03:28:14;20.50;99.90
17715;DHT22;8977;50.902;4.314;2022-09-09T03:30:41;20.40;99.90
17715;DHT22;8977;50.902;4.314;2022-09-09T03:33:08;20.40;99.90
17715;DHT22;8977;50.902;4.314;2022-09-09T03:35:36;20.40;99.90
17715;DHT22;8977;50.902;4.314;2022-09-09T03:38:03;20.40;99.90
17715;DHT22;8977;50.902;4.314;2022-09-09T03:40:30;20.30;99.90
17715;DHT22;8977;50.902;4.314;2022-09-09T03:42:57;20.40;99.90
17715;DHT22;8977;50.902;4.314;2022-09-09T03:45:25;20.40;99.90
17715;DHT22;8977;50.902;4.314;2022-09-09T03:47:52;20.40;99.90
17715;DHT22;8977;50.902;4.314;2022-09-09T03:50:19;20.50;99.90
17715;DHT22;8977;50.902;4.314;2022-09-09T03:52:47;20.40;99.90
17715;DHT22;8977;50.902;4.314;2022-09-09T03:55:14;20.40;99.90
17715;DHT22;8977;50.902;4.314;2022-09-09T03:57:41;20.40;99.90
17715;DHT22;8977;50.902;4.314;2022-09-09T04:00:09;20.40;99.90
17715;DHT22;8977;50.902;4.314;2022-09-09T04:02:36;20.40;99.90
17715;DHT22;8977;50.902;4.314;2022-09-09T04:05:03;20.40;99.90
17715;DHT22;8977;50.902;4.314;2022-09-09T04:07:30;20.40;99.90
17715;DHT22;8977;50.902;4.314;2022-09-09T04:09:59;20.40;99.90
17715;DHT22;8977;50.902;4.314;2022-09-09T04:12:26;20.40;99.90
17715;DHT22;8977;50.902;4.314;2022-09-09T04:14:53;20.40;99.90
17715;DHT22;8977;50.902;4.314;2022-09-09T04:17:20;20.40;99.90
17715;DHT22;8977;50.902;4.314;2022-09-09T04:19:46;20.30;99.90
17715;DHT22;8977;50.902;4.314;2022-09-09T04:22:13;20.40;99.90
17715;DHT22;8977;50.902;4.314;2022-09-09T04:24:41;20.30;99.90
17715;DHT22;8977;50.902;4.314;2022-09-09T04:27:09;20.40;99.90
17715;DHT22;8977;50.902;4.314;2022-09-09T04:29:36;20.30;99.90
17715;DHT22;8977;50.902;4.314;2022-09-09T04:32:03;20.30;99.90
17715;DHT22;8977;50.902;4.314;2022-09-09T04:34:31;20.30;99.90
17715;DHT22;8977;50.902;4.314;2022-09-09T04:36:58;20.30;99.90
17715;DHT22;8977;50.902;4.314;2022-09-09T04:39:26;20.30;99.90
17715;DHT22;8977;50.902;4.314;2022-09-09T04:41:52;20.30;99.90
17715;DHT22;8977;50.902;4.314;2022-09-09T04:44:21;20.30;99.90
17715;DHT22;8977;50.902;4.314;2022-09-09T04:46:47;20.40;99.90
17715;DHT22;8977;50.902;4.314;2022-09-09T04:49:14;20.30;99.90
17715;DHT22;8977;50.902;4.314;2022-09-09T04:51:41;20.20;99.90
17715;DHT22;8977;50.902;4.314;2022-09-09T04:54:08;20.20;99.90
17715;DHT22;8977;50.902;4.314;2022-09-09T04:56:35;20.20;99.90
17715;DHT22;8977;50.902;4.314;2022-09-09T04:59:02;20.30;99.90
17715;DHT22;8977;50.902;4.314;2022-09-09T05:01:31;20.20;99.90
17715;DHT22;8977;50.902;4.314;2022-09-09T05:03:57;20.20;99.90
17715;DHT22;8977;50.902;4.314;2022-09-09T05:06:24;20.30;99.90
17715;DHT22;8977;50.902;4.314;2022-09-09T05:08:52;20.20;99.90
17715;DHT22;8977;50.902;4.314;2022-09-09T05:11:21;20.20;99.90
17715;DHT22;8977;50.902;4.314;2022-09-09T05:13:48;20.20;99.90
17715;DHT22;8977;50.902;4.314;2022-09-09T05:16:16;20.20;99.90
17715;DHT22;8977;50.902;4.314;2022-09-09T05:18:45;20.20;99.90
17715;DHT22;8977;50.902;4.314;2022-09-09T05:21:14;20.20;99.90
17715;DHT22;8977;50.902;4.314;2022-09-09T05:23:41;20.20;99.90
17715;DHT22;8977;50.902;4.314;2022-09-09T05:26:13;20.30;99.90
17715;DHT22;8977;50.902;4.314;2022-09-09T05:28:40;20.30;99.90
17715;DHT22;8977;50.902;4.314;2022-09-09T05:31:08;20.30;99.90
17715;DHT22;8977;50.902;4.314;2022-09-09T05:33:37;20.20;99.90
17715;DHT22;8977;50.902;4.314;2022-09-09T05:36:08;20.20;99.90
17715;DHT22;8977;50.902;4.314;2022-09-09T05:38:36;20.10;99.90
17715;DHT22;8977;50.902;4.314;2022-09-09T05:41:03;20.20;99.90
17715;DHT22;8977;50.902;4.314;2022-09-09T05:43:30;20.20;99.90
17715;DHT22;8977;50.902;4.314;2022-09-09T05:46:02;20.10;99.90
17715;DHT22;8977;50.902;4.314;2022-09-09T05:48:30;20.20;99.90
17715;DHT22;8977;50.902;4.314;2022-09-09T05:50:57;20.20;99.90
17715;DHT22;8977;50.902;4.314;2022-09-09T05:53:26;20.20;99.90
17715;DHT22;8977;50.902;4.314;2022-09-09T05:56:00;20.20;99.90
17715;DHT22;8977;50.902;4.314;2022-09-09T05:58:29;20.20;99.90
17715;DHT22;8977;50.902;4.314;2022-09-09T06:01:01;20.40;99.90
17715;DHT22;8977;50.902;4.314;2022-09-09T06:03:28;20.30;99.90
17715;DHT22;8977;50.902;4.314;2022-09-09T06:05:59;20.20;99.90
17715;DHT22;8977;50.902;4.314;2022-09-09T06:08:27;20.20;99.90
17715;DHT22;8977;50.902;4.314;2022-09-09T06:11:01;20.10;99.90
17715;DHT22;8977;50.902;4.314;2022-09-09T06:13:29;20.20;99.90
17715;DHT22;8977;50.902;4.314;2022-09-09T06:15:56;20.20;99.90
17715;DHT22;8977;50.902;4.314;2022-09-09T06:18:24;20.30;99.90
17715;DHT22;8977;50.902;4.314;2022-09-09T06:20:55;20.30;99.90
17715;DHT22;8977;50.902;4.314;2022-09-09T06:23:22;20.40;99.90
17715;DHT22;8977;50.902;4.314;2022-09-09T06:25:50;20.30;99.90
17715;DHT22;8977;50.902;4.314;2022-09-09T06:28:17;20.30;99.90
17715;DHT22;8977;50.902;4.314;2022-09-09T06:30:44;20.30;99.90
17715;DHT22;8977;50.902;4.314;2022-09-09T06:33:12;20.30;99.90
17715;DHT22;8977;50.902;4.314;2022-09-09T06:35:39;20.20;99.90
17715;DHT22;8977;50.902;4.314;2022-09-09T06:38:06;20.10;99.90
17715;DHT22;8977;50.902;4.314;2022-09-09T06:40:34;20.20;99.90
17715;DHT22;8977;50.902;4.314;2022-09-09T06:43:02;20.20;99.90
17715;DHT22;8977;50.902;4.314;2022-09-09T06:45:29;20.20;99.90
17715;DHT22;8977;50.902;4.314;2022-09-09T06:47:56;20.30;99.90
17715;DHT22;8977;50.902;4.314;2022-09-09T06:50:23;20.30;99.90
17715;DHT22;8977;50.902;4.314;2022-09-09T06:52:50;20.30;99.90
17715;DHT22;8977;50.902;4.314;2022-09-09T06:55:17;20.30;99.90
17715;DHT22;8977;50.902;4.314;2022-09-09T06:57:44;20.30;99.90
17715;DHT22;8977;50.902;4.314;2022-09-09T07:00:13;20.30;99.90
17715;DHT22;8977;50.902;4.314;2022-09-09T07:02:40;20.30;99.90
17715;DHT22;8977;50.902;4.314;2022-09-09T07:05:08;20.30;99.90
17715;DHT22;8977;50.902;4.314;2022-09-09T07:07:35;20.40;99.90
17715;DHT22;8977;50.902;4.314;2022-09-09T07:10:02;20.50;99.90
17715;DHT22;8977;50.902;4.314;2022-09-09T07:12:30;20.40;99.90
17715;DHT22;8977;50.902;4.314;2022-09-09T07:14:57;20.40;99.90
17715;DHT22;8977;50.902;4.314;2022-09-09T07:17:25;20.30;99.90
17715;DHT22;8977;50.902;4.314;2022-09-09T07:19:52;20.40;99.90
17715;DHT22;8977;50.902;4.314;2022-09-09T07:22:18;20.40;99.90
17715;DHT22;8977;50.902;4.314;2022-09-09T07:24:45;20.40;99.90
17715;DHT22;8977;50.902;4.314;2022-09-09T07:27:12;20.40;99.90
17715;DHT22;8977;50.902;4.314;2022-09-09T07:29:39;20.40;99.90
17715;DHT22;8977;50.902;4.314;2022-09-09T07:32:05;20.40;99.90
17715;DHT22;8977;50.902;4.314;2022-09-09T07:34:34;20.50;99.90
17715;DHT22;8977;50.902;4.314;2022-09-09T07:37:00;20.60;99.90
17715;DHT22;8977;50.902;4.314;2022-09-09T07:39:27;20.50;99.90
17715;DHT22;8977;50.902;4.314;2022-09-09T07:41:54;20.50;99.90
17715;DHT22;8977;50.902;4.314;2022-09-09T07:44:23;20.30;99.90
17715;DHT22;8977;50.902;4.314;2022-09-09T07:46:52;20.30;99.90
17715;DHT22;8977;50.902;4.314;2022-09-09T07:49:19;20.50;99.90
17715;DHT22;8977;50.902;4.314;2022-09-09T07:51:47;20.30;99.90
17715;DHT22;8977;50.902;4.314;2022-09-09T07:54:16;20.40;99.90
17715;DHT22;8977;50.902;4.314;2022-09-09T07:56:46;20.50;99.90
17715;DHT22;8977;50.902;4.314;2022-09-09T07:59:13;20.40;99.90
17715;DHT22;8977;50.902;4.314;2022-09-09T08:01:41;20.40;99.90
17715;DHT22;8977;50.902;4.314;2022-09-09T08:04:10;20.40;99.90
17715;DHT22;8977;50.902;4.314;2022-09-09T08:06:42;20.30;99.90
17715;DHT22;8977;50.902;4.314;2022-09-09T08:09:10;20.40;99.90
17715;DHT22;8977;50.902;4.314;2022-09-09T08:11:39;20.40;99.90
17715;DHT22;8977;50.902;4.314;2022-09-09T08:14:06;20.40;99.90
17715;DHT22;8977;50.902;4.314;2022-09-09T08:16:35;20.40;99.90
17715;DHT22;8977;50.902;4.314;2022-09-09T08:19:03;20.30;99.90
17715;DHT22;8977;50.902;4.314;2022-09-09T08:21:31;20.40;99.90
17715;DHT22;8977;50.902;4.314;2022-09-09T08:24:00;20.60;99.90
17715;DHT22;8977;50.902;4.314;2022-09-09T08:26:30;20.60;99.90
17715;DHT22;8977;50.902;4.314;2022-09-09T08:28:58;20.50;99.90
17715;DHT22;8977;50.902;4.314;2022-09-09T08:31:27;20.40;99.90
17715;DHT22;8977;50.902;4.314;2022-09-09T08:33:54;20.40;99.90
17715;DHT22;8977;50.902;4.314;2022-09-09T08:36:23;20.40;99.90
17715;DHT22;8977;50.902;4.314;2022-09-09T08:38:52;20.40;99.90
17715;DHT22;8977;50.902;4.314;2022-09-09T08:41:49;20.40;99.90
17715;DHT22;8977;50.902;4.314;2022-09-09T08:44:28;20.40;99.90
17715;DHT22;8977;50.902;4.314;2022-09-09T08:47:01;20.40;99.90
17715;DHT22;8977;50.902;4.314;2022-09-09T08:49:46;20.30;99.90
17715;DHT22;8977;50.902;4.314;2022-09-09T08:52:19;20.30;99.90
17715;DHT22;8977;50.902;4.314;2022-09-09T08:54:48;20.30;99.90
17715;DHT22;8977;50.902;4.314;2022-09-09T08:57:21;20.20;99.90
17715;DHT22;8977;50.902;4.314;2022-09-09T08:59:52;20.40;99.90
17715;DHT22;8977;50.902;4.314;2022-09-09T09:02:25;20.30;99.90
17715;DHT22;8977;50.902;4.314;2022-09-09T09:05:10;20.30;99.90
17715;DHT22;8977;50.902;4.314;2022-09-09T09:07:48;20.30;99.90
17715;DHT22;8977;50.902;4.314;2022-09-09T09:10:25;20.30;99.90
17715;DHT22;8977;50.902;4.314;2022-09-09T09:12:59;20.30;99.90
17715;DHT22;8977;50.902;4.314;2022-09-09T09:15:31;20.30;99.90
17715;DHT22;8977;50.902;4.314;2022-09-09T09:18:02;20.20;99.90
17715;DHT22;8977;50.902;4.314;2022-09-09T09:20:34;20.30;99.90
17715;DHT22;8977;50.902;4.314;2022-09-09T09:23:05;20.30;99.90
17715;DHT22;8977;50.902;4.314;2022-09-09T09:25:35;20.20;99.90
17715;DHT22;8977;50.902;4.314;2022-09-09T09:28:13;20.20;99.90
17715;DHT22;8977;50.902;4.314;2022-09-09T09:30:45;20.20;99.90
17715;DHT22;8977;50.902;4.314;2022-09-09T09:33:18;20.30;99.90
17715;DHT22;8977;50.902;4.314;2022-09-09T09:35:47;20.30;99.90
17715;DHT22;8977;50.902;4.314;2022-09-09T09:38:17;20.20;99.90
17715;DHT22;8977;50.902;4.314;2022-09-09T09:40:50;20.30;99.90
17715;DHT22;8977;50.902;4.314;2022-09-09T09:43:24;20.30;99.90
17715;DHT22;8977;50.902;4.314;2022-09-09T09:45:53;20.40;99.90
17715;DHT22;8977;50.902;4.314;2022-09-09T09:48:20;20.40;99.90
17715;DHT22;8977;50.902;4.314;2022-09-09T09:50:49;20.40;99.90
17715;DHT22;8977;50.902;4.314;2022-09-09T09:53:21;20.40;99.90
17715;DHT22;8977;50.902;4.314;2022-09-09T09:55:53;20.30;99.90
17715;DHT22;8977;50.902;4.314;2022-09-09T09:58:22;20.30;99.90
17715;DHT22;8977;50.902;4.314;2022-09-09T10:00:50;20.40;99.90
17715;DHT22;8977;50.902;4.314;2022-09-09T10:03:25;20.40;99.90
17715;DHT22;8977;50.902;4.314;2022-09-09T10:05:53;20.40;99.90
17715;DHT22;8977;50.902;4.314;2022-09-09T10:08:22;20.40;99.90
17715;DHT22;8977;50.902;4.314;2022-09-09T10:11:12;20.40;99.90
17715;DHT22;8977;50.902;4.314;2022-09-09T10:13:53;20.30;99.90
17715;DHT22;8977;50.902;4.314;2022-09-09T10:16:32;20.30;99.90
17715;DHT22;8977;50.902;4.314;2022-09-09T10:19:08;20.40;99.90
17715;DHT22;8977;50.902;4.314;2022-09-09T10:21:58;20.40;99.90
17715;DHT22;8977;50.902;4.314;2022-09-09T10:24:44;20.40;99.90
17715;DHT22;8977;50.902;4.314;2022-09-09T10:27:19;20.30;99.90
17715;DHT22;8977;50.902;4.314;2022-09-09T10:30:06;20.40;99.90
17715;DHT22;8977;50.902;4.314;2022-09-09T10:32:39;20.50;99.90
17715;DHT22;8977;50.902;4.314;2022-09-09T10:35:13;20.60;99.90
17715;DHT22;8977;50.902;4.314;2022-09-09T10:38:08;20.50;99.90
17715;DHT22;8977;50.902;4.314;2022-09-09T10:40:41;20.70;99.90
17715;DHT22;8977;50.902;4.314;2022-09-09T10:43:20;20.80;99.90
17715;DHT22;8977;50.902;4.314;2022-09-09T10:45:59;20.80;99.90
17715;DHT22;8977;50.902;4.314;2022-09-09T10:48:35;20.70;99.90
17715;DHT22;8977;50.902;4.314;2022-09-09T10:51:16;20.70;99.90
17715;DHT22;8977;50.902;4.314;2022-09-09T10:53:52;20.80;99.90
17715;DHT22;8977;50.902;4.314;2022-09-09T10:56:21;21.00;99.90
17715;DHT22;8977;50.902;4.314;2022-09-09T10:58:53;20.90;99.90
17715;DHT22;8977;50.902;4.314;2022-09-09T11:01:25;20.90;99.90
17715;DHT22;8977;50.902;4.314;2022-09-09T11:03:58;20.80;99.90
17715;DHT22;8977;50.902;4.314;2022-09-09T11:06:32;20.90;99.90
17715;DHT22;8977;50.902;4.314;2022-09-09T11:09:02;21.00;99.90
17715;DHT22;8977;50.902;4.314;2022-09-09T11:11:34;20.90;99.90
17715;DHT22;8977;50.902;4.314;2022-09-09T11:14:08;20.80;99.90
17715;DHT22;8977;50.902;4.314;2022-09-09T11:16:40;20.90;99.90
17715;DHT22;8977;50.902;4.314;2022-09-09T11:19:16;21.00;99.90
17715;DHT22;8977;50.902;4.314;2022-09-09T11:21:46;21.10;99.90
17715;DHT22;8977;50.902;4.314;2022-09-09T11:24:17;20.90;99.90
17715;DHT22;8977;50.902;4.314;2022-09-09T11:26:51;21.00;99.90
17715;DHT22;8977;50.902;4.314;2022-09-09T11:29:51;21.00;99.90
17715;DHT22;8977;50.902;4.314;2022-09-09T11:32:39;20.80;99.90
17715;DHT22;8977;50.902;4.314;2022-09-09T11:35:21;21.00;99.90
17715;DHT22;8977;50.902;4.314;2022-09-09T11:38:12;21.00;99.90
17715;DHT22;8977;50.902;4.314;2022-09-09T11:40:43;20.90;99.90
17715;DHT22;8977;50.902;4.314;2022-09-09T11:43:13;20.90;99.90
17715;DHT22;8977;50.902;4.314;2022-09-09T11:45:42;20.90;99.90
17715;DHT22;8977;50.902;4.314;2022-09-09T11:48:28;21.00;99.90
17715;DHT22;8977;50.902;4.314;2022-09-09T11:51:01;21.00;99.90
17715;DHT22;8977;50.902;4.314;2022-09-09T11:53:31;20.90;99.90
17715;DHT22;8977;50.902;4.314;2022-09-09T11:56:23;21.00;99.90
17715;DHT22;8977;50.902;4.314;2022-09-09T11:58:56;21.10;99.90
17715;DHT22;8977;50.902;4.314;2022-09-09T12:01:29;21.00;99.90
17715;DHT22;8977;50.902;4.314;2022-09-09T12:04:13;21.00;99.90
17715;DHT22;8977;50.902;4.314;2022-09-09T12:06:45;21.00;99.90
17715;DHT22;8977;50.902;4.314;2022-09-09T12:09:19;20.90;99.90
17715;DHT22;8977;50.902;4.314;2022-09-09T12:11:49;21.00;99.90
17715;DHT22;8977;50.902;4.314;2022-09-09T12:14:23;21.00;99.90
17715;DHT22;8977;50.902;4.314;2022-09-09T12:17:10;21.10;99.90
17715;DHT22;8977;50.902;4.314;2022-09-09T12:19:45;21.10;99.90
17715;DHT22;8977;50.902;4.314;2022-09-09T12:22:20;21.20;99.90
17715;DHT22;8977;50.902;4.314;2022-09-09T12:24:55;21.10;99.90
17715;DHT22;8977;50.902;4.314;2022-09-09T12:27:27;21.10;99.90
17715;DHT22;8977;50.902;4.314;2022-09-09T12:30:03;21.10;99.90
17715;DHT22;8977;50.902;4.314;2022-09-09T12:32:32;21.10;99.90
17715;DHT22;8977;50.902;4.314;2022-09-09T12:35:03;21.10;99.90
17715;DHT22;8977;50.902;4.314;2022-09-09T12:37:34;21.20;99.90
17715;DHT22;8977;50.902;4.314;2022-09-09T12:40:03;21.20;99.90
17715;DHT22;8977;50.902;4.314;2022-09-09T12:42:31;21.10;99.90
17715;DHT22;8977;50.902;4.314;2022-09-09T12:45:01;21.10;99.90
17715;DHT22;8977;50.902;4.314;2022-09-09T12:47:38;21.10;99.90
17715;DHT22;8977;50.902;4.314;2022-09-09T12:50:18;21.30;99.90
17715;DHT22;8977;50.902;4.314;2022-09-09T12:52:47;21.40;99.90
17715;DHT22;8977;50.902;4.314;2022-09-09T12:55:18;21.30;99.90
17715;DHT22;8977;50.902;4.314;2022-09-09T12:57:48;21.40;99.90
17715;DHT22;8977;50.902;4.314;2022-09-09T13:00:18;21.30;99.90
17715;DHT22;8977;50.902;4.314;2022-09-09T13:02:48;21.40;99.90
17715;DHT22;8977;50.902;4.314;2022-09-09T13:05:20;21.30;99.90
17715;DHT22;8977;50.902;4.314;2022-09-09T13:07:48;21.40;99.90
17715;DHT22;8977;50.902;4.314;2022-09-09T13:10:21;21.50;99.90
17715;DHT22;8977;50.902;4.314;2022-09-09T13:12:49;21.40;99.90
17715;DHT22;8977;50.902;4.314;2022-09-09T13:15:20;21.40;99.90
17715;DHT22;8977;50.902;4.314;2022-09-09T13:17:53;21.50;99.90
17715;DHT22;8977;50.902;4.314;2022-09-09T13:20:22;21.40;99.90
17715;DHT22;8977;50.902;4.314;2022-09-09T13:22:51;21.50;99.90
17715;DHT22;8977;50.902;4.314;2022-09-09T13:25:22;21.40;99.90
17715;DHT22;8977;50.902;4.314;2022-09-09T13:27:58;21.50;99.90
17715;DHT22;8977;50.902;4.314;2022-09-09T13:30:27;21.50;99.90
17715;DHT22;8977;50.902;4.314;2022-09-09T13:33:03;21.50;99.90
17715;DHT22;8977;50.902;4.314;2022-09-09T13:35:32;21.50;99.90
17715;DHT22;8977;50.902;4.314;2022-09-09T13:37:59;21.60;99.90
17715;DHT22;8977;50.902;4.314;2022-09-09T13:40:33;21.70;99.90
17715;DHT22;8977;50.902;4.314;2022-09-09T13:43:00;21.80;99.90
17715;DHT22;8977;50.902;4.314;2022-09-09T13:45:27;21.80;99.90
17715;DHT22;8977;50.902;4.314;2022-09-09T13:47:55;21.80;99.90
17715;DHT22;8977;50.902;4.314;2022-09-09T13:50:24;21.90;99.90
17715;DHT22;8977;50.902;4.314;2022-09-09T13:52:54;22.00;99.90
17715;DHT22;8977;50.902;4.314;2022-09-09T13:55:24;21.90;99.90
17715;DHT22;8977;50.902;4.314;2022-09-09T13:57:52;22.10;99.90
17715;DHT22;8977;50.902;4.314;2022-09-09T14:00:19;22.10;99.90
17715;DHT22;8977;50.902;4.314;2022-09-09T14:02:47;22.00;99.90
17715;DHT22;8977;50.902;4.314;2022-09-09T14:05:14;21.80;99.90
17715;DHT22;8977;50.902;4.314;2022-09-09T14:07:42;21.80;99.90
17715;DHT22;8977;50.902;4.314;2022-09-09T14:10:11;21.90;99.90
17715;DHT22;8977;50.902;4.314;2022-09-09T14:12:38;22.00;99.90
17715;DHT22;8977;50.902;4.314;2022-09-09T14:15:06;21.90;99.90
17715;DHT22;8977;50.902;4.314;2022-09-09T14:17:34;21.90;99.90
17715;DHT22;8977;50.902;4.314;2022-09-09T14:20:02;21.90;99.90
17715;DHT22;8977;50.902;4.314;2022-09-09T14:22:29;21.90;99.90
17715;DHT22;8977;50.902;4.314;2022-09-09T14:24:56;21.90;99.90
17715;DHT22;8977;50.902;4.314;2022-09-09T14:27:24;21.90;99.90
17715;DHT22;8977;50.902;4.314;2022-09-09T14:29:52;22.00;99.90
17715;DHT22;8977;50.902;4.314;2022-09-09T14:32:19;22.00;99.90
17715;DHT22;8977;50.902;4.314;2022-09-09T14:34:46;22.10;99.90
17715;DHT22;8977;50.902;4.314;2022-09-09T14:37:15;22.10;99.90
17715;DHT22;8977;50.902;4.314;2022-09-09T14:39:42;22.10;99.90
17715;DHT22;8977;50.902;4.314;2022-09-09T14:42:10;22.00;99.90
17715;DHT22;8977;50.902;4.314;2022-09-09T14:44:38;22.10;99.90
17715;DHT22;8977;50.902;4.314;2022-09-09T14:47:06;22.00;99.90
17715;DHT22;8977;50.902;4.314;2022-09-09T14:49:34;22.00;99.90
17715;DHT22;8977;50.902;4.314;2022-09-09T14:52:01;22.00;99.90
17715;DHT22;8977;50.902;4.314;2022-09-09T14:54:28;21.90;99.90
17715;DHT22;8977;50.902;4.314;2022-09-09T14:56:55;22.00;99.90
17715;DHT22;8977;50.902;4.314;2022-09-09T14:59:22;22.00;99.90
17715;DHT22;8977;50.902;4.314;2022-09-09T15:01:51;22.10;99.90
17715;DHT22;8977;50.902;4.314;2022-09-09T15:04:18;22.10;99.90
17715;DHT22;8977;50.902;4.314;2022-09-09T15:06:45;22.20;99.90
17715;DHT22;8977;50.902;4.314;2022-09-09T15:09:15;22.20;99.90
17715;DHT22;8977;50.902;4.314;2022-09-09T15:11:42;22.20;99.90
17715;DHT22;8977;50.902;4.314;2022-09-09T15:14:09;22.20;99.90
17715;DHT22;8977;50.902;4.314;2022-09-09T15:16:38;22.20;99.90
17715;DHT22;8977;50.902;4.314;2022-09-09T15:19:06;22.20;99.90
17715;DHT22;8977;50.902;4.314;2022-09-09T15:21:35;22.20;99.90
17715;DHT22;8977;50.902;4.314;2022-09-09T15:24:03;22.10;99.90
17715;DHT22;8977;50.902;4.314;2022-09-09T15:26:32;22.10;99.90
17715;DHT22;8977;50.902;4.314;2022-09-09T15:28:59;22.20;99.90
17715;DHT22;8977;50.902;4.314;2022-09-09T15:31:30;22.30;99.90
17715;DHT22;8977;50.902;4.314;2022-09-09T15:33:58;22.30;99.90
17715;DHT22;8977;50.902;4.314;2022-09-09T15:36:30;22.30;99.90
17715;DHT22;8977;50.902;4.314;2022-09-09T15:38:58;22.30;99.90
17715;DHT22;8977;50.902;4.314;2022-09-09T15:41:25;22.40;99.90
17715;DHT22;8977;50.902;4.314;2022-09-09T15:43:54;22.50;99.90
17715;DHT22;8977;50.902;4.314;2022-09-09T15:46:27;22.60;99.90
17715;DHT22;8977;50.902;4.314;2022-09-09T15:48:55;22.50;99.90
17715;DHT22;8977;50.902;4.314;2022-09-09T15:51:23;22.50;99.90
17715;DHT22;8977;50.902;4.314;2022-09-09T15:53:55;22.40;99.90
17715;DHT22;8977;50.902;4.314;2022-09-09T15:56:22;22.40;99.90
17715;DHT22;8977;50.902;4.314;2022-09-09T15:58:49;22.50;99.90
17715;DHT22;8977;50.902;4.314;2022-09-09T16:01:17;22.40;99.90
17715;DHT22;8977;50.902;4.314;2022-09-09T16:03:45;22.30;99.90
17715;DHT22;8977;50.902;4.314;2022-09-09T16:06:12;22.20;99.90
17715;DHT22;8977;50.902;4.314;2022-09-09T16:08:41;22.10;99.90